sensor_id;sensor_type;location;lat;lon;timestamp;P1;durP1;ratioP1;P2;durP2;ratioP2
11247;SDS011;5681;53.316;13.950;2023-10-31T00:00:11;8.93;;;5.03;;
11247;SDS011;5681;53.316;13.950;2023-10-31T00:02:38;7.50;;;4.90;;
11247;SDS011;5681;53.316;13.950;2023-10-31T00:05:04;12.18;;;5.72;;
11247;SDS011;5681;53.316;13.950;2023-10-31T00:07:31;10.65;;;4.95;;
11247;SDS011;5681;53.316;13.950;2023-10-31T00:09:57;10.07;;;5.05;;
11247;SDS011;5681;53.316;13.950;2023-10-31T00:12:24;8.38;;;5.10;;
11247;SDS011;5681;53.316;13.950;2023-10-31T00:14:50;9.07;;;5.05;;
11247;SDS011;5681;53.316;13.950;2023-10-31T00:17:18;11.73;;;5.50;;
11247;SDS011;5681;53.316;13.950;2023-10-31T00:19:44;8.88;;;5.32;;
11247;SDS011;5681;53.316;13.950;2023-10-31T00:22:10;9.05;;;5.18;;
11247;SDS011;5681;53.316;13.950;2023-10-31T00:24:37;11.57;;;5.07;;
11247;SDS011;5681;53.316;13.950;2023-10-31T00:27:03;10.65;;;5.80;;
11247;SDS011;5681;53.316;13.950;2023-10-31T00:29:30;11.35;;;6.18;;
11247;SDS011;5681;53.316;13.950;2023-10-31T00:31:56;10.75;;;5.75;;
11247;SDS011;5681;53.316;13.950;2023-10-31T00:34:24;8.25;;;5.50;;
11247;SDS011;5681;53.316;13.950;2023-10-31T00:36:50;10.05;;;6.25;;
11247;SDS011;5681;53.316;13.950;2023-10-31T00:39:16;11.52;;;6.00;;
11247;SDS011;5681;53.316;13.950;2023-10-31T00:41:43;12.10;;;5.93;;
11247;SDS011;5681;53.316;13.950;2023-10-31T00:44:10;14.40;;;5.55;;
11247;SDS011;5681;53.316;13.950;2023-10-31T00:46:36;8.60;;;5.63;;
11247;SDS011;5681;53.316;13.950;2023-10-31T00:49:03;15.30;;;6.22;;
11247;SDS011;5681;53.316;13.950;2023-10-31T00:51:30;10.40;;;6.10;;
11247;SDS011;5681;53.316;13.950;2023-10-31T00:53:57;9.55;;;5.82;;
11247;SDS011;5681;53.316;13.950;2023-10-31T00:56:23;13.30;;;6.28;;
11247;SDS011;5681;53.316;13.950;2023-10-31T00:58:49;12.18;;;6.25;;
11247;SDS011;5681;53.316;13.950;2023-10-31T01:01:16;9.38;;;5.45;;
11247;SDS011;5681;53.316;13.950;2023-10-31T01:03:42;9.55;;;6.00;;
11247;SDS011;5681;53.316;13.950;2023-10-31T01:06:08;9.88;;;6.28;;
11247;SDS011;5681;53.316;13.950;2023-10-31T01:08:36;11.20;;;6.45;;
11247;SDS011;5681;53.316;13.950;2023-10-31T01:11:03;10.55;;;6.53;;
11247;SDS011;5681;53.316;13.950;2023-10-31T01:13:29;16.40;;;6.82;;
11247;SDS011;5681;53.316;13.950;2023-10-31T01:15:55;10.55;;;6.07;;
11247;SDS011;5681;53.316;13.950;2023-10-31T01:18:21;11.55;;;6.65;;
11247;SDS011;5681;53.316;13.950;2023-10-31T01:20:48;11.45;;;6.50;;
11247;SDS011;5681;53.316;13.950;2023-10-31T01:23:14;10.98;;;6.72;;
11247;SDS011;5681;53.316;13.950;2023-10-31T01:25:42;12.52;;;7.18;;
11247;SDS011;5681;53.316;13.950;2023-10-31T01:28:09;13.32;;;7.38;;
11247;SDS011;5681;53.316;13.950;2023-10-31T01:30:35;13.23;;;7.15;;
11247;SDS011;5681;53.316;13.950;2023-10-31T01:33:01;11.52;;;6.65;;
11247;SDS011;5681;53.316;13.950;2023-10-31T01:35:28;13.55;;;7.10;;
11247;SDS011;5681;53.316;13.950;2023-10-31T01:37:54;14.35;;;7.25;;
11247;SDS011;5681;53.316;13.950;2023-10-31T01:40:21;14.25;;;6.90;;
11247;SDS011;5681;53.316;13.950;2023-10-31T01:42:48;12.65;;;7.15;;
11247;SDS011;5681;53.316;13.950;2023-10-31T01:45:15;10.30;;;7.55;;
11247;SDS011;5681;53.316;13.950;2023-10-31T01:47:42;14.18;;;7.68;;
11247;SDS011;5681;53.316;13.950;2023-10-31T01:50:09;13.30;;;7.25;;
11247;SDS011;5681;53.316;13.950;2023-10-31T01:52:36;10.48;;;7.20;;
11247;SDS011;5681;53.316;13.950;2023-10-31T01:55:02;11.52;;;7.35;;
11247;SDS011;5681;53.316;13.950;2023-10-31T01:57:30;13.25;;;7.32;;
11247;SDS011;5681;53.316;13.950;2023-10-31T01:59:58;11.93;;;7.38;;
11247;SDS011;5681;53.316;13.950;2023-10-31T02:02:25;15.20;;;6.80;;
11247;SDS011;5681;53.316;13.950;2023-10-31T02:04:52;9.70;;;7.03;;
11247;SDS011;5681;53.316;13.950;2023-10-31T02:07:19;13.20;;;7.22;;
11247;SDS011;5681;53.316;13.950;2023-10-31T02:09:45;11.95;;;6.85;;
11247;SDS011;5681;53.316;13.950;2023-10-31T02:12:22;14.52;;;7.25;;
11247;SDS011;5681;53.316;13.950;2023-10-31T02:14:58;11.77;;;6.95;;
11247;SDS011;5681;53.316;13.950;2023-10-31T02:17:24;15.20;;;7.60;;
11247;SDS011;5681;53.316;13.950;2023-10-31T02:19:51;10.18;;;7.32;;
11247;SDS011;5681;53.316;13.950;2023-10-31T02:22:18;12.75;;;7.10;;
11247;SDS011;5681;53.316;13.950;2023-10-31T02:24:44;12.00;;;7.30;;
11247;SDS011;5681;53.316;13.950;2023-10-31T02:27:11;11.00;;;7.40;;
11247;SDS011;5681;53.316;13.950;2023-10-31T02:29:38;12.30;;;6.78;;
11247;SDS011;5681;53.316;13.950;2023-10-31T02:32:05;9.23;;;6.88;;
11247;SDS011;5681;53.316;13.950;2023-10-31T02:37:24;13.18;;;7.47;;
11247;SDS011;5681;53.316;13.950;2023-10-31T02:39:50;12.75;;;7.43;;
11247;SDS011;5681;53.316;13.950;2023-10-31T02:42:17;13.68;;;7.75;;
11247;SDS011;5681;53.316;13.950;2023-10-31T02:44:43;11.90;;;7.50;;
11247;SDS011;5681;53.316;13.950;2023-10-31T02:47:09;12.20;;;7.95;;
11247;SDS011;5681;53.316;13.950;2023-10-31T02:49:36;13.55;;;8.30;;
11247;SDS011;5681;53.316;13.950;2023-10-31T02:52:02;12.32;;;7.45;;
11247;SDS011;5681;53.316;13.950;2023-10-31T02:54:30;14.32;;;8.68;;
11247;SDS011;5681;53.316;13.950;2023-10-31T02:56:57;13.23;;;8.40;;
11247;SDS011;5681;53.316;13.950;2023-10-31T02:59:23;11.75;;;7.85;;
11247;SDS011;5681;53.316;13.950;2023-10-31T03:01:50;11.63;;;8.10;;
11247;SDS011;5681;53.316;13.950;2023-10-31T03:04:16;15.93;;;8.93;;
11247;SDS011;5681;53.316;13.950;2023-10-31T03:06:42;13.23;;;9.43;;
11247;SDS011;5681;53.316;13.950;2023-10-31T03:09:09;11.88;;;8.55;;
11247;SDS011;5681;53.316;13.950;2023-10-31T03:11:36;12.98;;;8.73;;
11247;SDS011;5681;53.316;13.950;2023-10-31T03:14:03;13.55;;;9.23;;
11247;SDS011;5681;53.316;13.950;2023-10-31T03:16:29;11.60;;;8.98;;
11247;SDS011;5681;53.316;13.950;2023-10-31T03:18:55;16.08;;;9.30;;
11247;SDS011;5681;53.316;13.950;2023-10-31T03:21:22;12.23;;;8.48;;
11247;SDS011;5681;53.316;13.950;2023-10-31T03:23:49;12.38;;;9.13;;
11247;SDS011;5681;53.316;13.950;2023-10-31T03:26:18;12.85;;;9.45;;
11247;SDS011;5681;53.316;13.950;2023-10-31T03:28:45;15.38;;;9.57;;
11247;SDS011;5681;53.316;13.950;2023-10-31T03:31:12;14.75;;;8.65;;
11247;SDS011;5681;53.316;13.950;2023-10-31T03:33:39;12.55;;;8.95;;
11247;SDS011;5681;53.316;13.950;2023-10-31T03:36:05;15.52;;;9.15;;
11247;SDS011;5681;53.316;13.950;2023-10-31T03:38:33;15.48;;;8.93;;
11247;SDS011;5681;53.316;13.950;2023-10-31T03:40:59;11.55;;;8.48;;
11247;SDS011;5681;53.316;13.950;2023-10-31T03:43:25;13.57;;;9.15;;
11247;SDS011;5681;53.316;13.950;2023-10-31T03:45:53;15.52;;;9.23;;
11247;SDS011;5681;53.316;13.950;2023-10-31T03:48:20;17.48;;;8.88;;
11247;SDS011;5681;53.316;13.950;2023-10-31T03:50:47;12.43;;;9.25;;
11247;SDS011;5681;53.316;13.950;2023-10-31T03:53:14;14.90;;;9.02;;
11247;SDS011;5681;53.316;13.950;2023-10-31T03:55:41;14.55;;;9.90;;
11247;SDS011;5681;53.316;13.950;2023-10-31T03:58:07;16.52;;;9.77;;
11247;SDS011;5681;53.316;13.950;2023-10-31T04:00:34;18.30;;;9.77;;
11247;SDS011;5681;53.316;13.950;2023-10-31T04:03:02;12.90;;;9.25;;
11247;SDS011;5681;53.316;13.950;2023-10-31T04:05:28;11.00;;;8.30;;
11247;SDS011;5681;53.316;13.950;2023-10-31T04:07:54;13.55;;;8.77;;
11247;SDS011;5681;53.316;13.950;2023-10-31T04:10:21;9.75;;;8.13;;
11247;SDS011;5681;53.316;13.950;2023-10-31T04:12:47;14.48;;;9.07;;
11247;SDS011;5681;53.316;13.950;2023-10-31T04:15:13;11.35;;;9.25;;
11247;SDS011;5681;53.316;13.950;2023-10-31T04:17:40;11.95;;;8.45;;
11247;SDS011;5681;53.316;13.950;2023-10-31T04:20:08;13.77;;;9.50;;
11247;SDS011;5681;53.316;13.950;2023-10-31T04:22:35;13.32;;;8.40;;
11247;SDS011;5681;53.316;13.950;2023-10-31T04:25:01;10.93;;;8.65;;
11247;SDS011;5681;53.316;13.950;2023-10-31T04:27:27;16.02;;;8.85;;
11247;SDS011;5681;53.316;13.950;2023-10-31T04:29:54;15.80;;;8.82;;
11247;SDS011;5681;53.316;13.950;2023-10-31T04:32:20;15.10;;;8.63;;
11247;SDS011;5681;53.316;13.950;2023-10-31T04:34:46;11.88;;;9.43;;
11247;SDS011;5681;53.316;13.950;2023-10-31T04:37:14;13.68;;;9.10;;
11247;SDS011;5681;53.316;13.950;2023-10-31T04:39:40;16.33;;;9.13;;
11247;SDS011;5681;53.316;13.950;2023-10-31T04:42:07;10.98;;;9.25;;
11247;SDS011;5681;53.316;13.950;2023-10-31T04:44:33;11.52;;;9.40;;
11247;SDS011;5681;53.316;13.950;2023-10-31T04:46:59;12.90;;;8.88;;
11247;SDS011;5681;53.316;13.950;2023-10-31T04:49:26;14.77;;;8.93;;
11247;SDS011;5681;53.316;13.950;2023-10-31T04:51:52;11.63;;;9.05;;
11247;SDS011;5681;53.316;13.950;2023-10-31T04:54:20;12.35;;;8.93;;
11247;SDS011;5681;53.316;13.950;2023-10-31T04:56:46;15.32;;;9.20;;
11247;SDS011;5681;53.316;13.950;2023-10-31T04:59:13;11.90;;;9.55;;
11247;SDS011;5681;53.316;13.950;2023-10-31T05:01:39;12.90;;;9.13;;
11247;SDS011;5681;53.316;13.950;2023-10-31T05:04:06;13.43;;;9.40;;
11247;SDS011;5681;53.316;13.950;2023-10-31T05:06:32;12.00;;;9.05;;
11247;SDS011;5681;53.316;13.950;2023-10-31T05:08:57;11.25;;;9.98;;
11247;SDS011;5681;53.316;13.950;2023-10-31T05:11:25;11.93;;;9.25;;
11247;SDS011;5681;53.316;13.950;2023-10-31T05:13:54;12.35;;;9.50;;
11247;SDS011;5681;53.316;13.950;2023-10-31T05:16:20;10.50;;;9.38;;
11247;SDS011;5681;53.316;13.950;2023-10-31T05:18:46;12.15;;;10.13;;
11247;SDS011;5681;53.316;13.950;2023-10-31T05:21:18;10.98;;;9.77;;
11247;SDS011;5681;53.316;13.950;2023-10-31T05:23:44;9.98;;;8.98;;
11247;SDS011;5681;53.316;13.950;2023-10-31T05:26:11;12.57;;;9.38;;
11247;SDS011;5681;53.316;13.950;2023-10-31T05:28:38;11.45;;;10.02;;
11247;SDS011;5681;53.316;13.950;2023-10-31T05:31:05;15.20;;;11.75;;
11247;SDS011;5681;53.316;13.950;2023-10-31T05:33:32;14.68;;;13.15;;
11247;SDS011;5681;53.316;13.950;2023-10-31T05:35:59;18.17;;;14.82;;
11247;SDS011;5681;53.316;13.950;2023-10-31T05:38:25;18.88;;;14.60;;
11247;SDS011;5681;53.316;13.950;2023-10-31T05:40:51;18.20;;;15.27;;
11247;SDS011;5681;53.316;13.950;2023-10-31T05:43:18;16.88;;;13.02;;
11247;SDS011;5681;53.316;13.950;2023-10-31T05:45:45;14.90;;;11.13;;
11247;SDS011;5681;53.316;13.950;2023-10-31T05:48:12;14.93;;;12.13;;
11247;SDS011;5681;53.316;13.950;2023-10-31T05:50:39;15.23;;;12.40;;
11247;SDS011;5681;53.316;13.950;2023-10-31T05:53:07;23.30;;;15.95;;
11247;SDS011;5681;53.316;13.950;2023-10-31T05:55:33;30.55;;;21.08;;
11247;SDS011;5681;53.316;13.950;2023-10-31T05:58:00;24.40;;;19.27;;
11247;SDS011;5681;53.316;13.950;2023-10-31T06:00:27;26.08;;;20.88;;
11247;SDS011;5681;53.316;13.950;2023-10-31T06:02:54;23.33;;;18.33;;
11247;SDS011;5681;53.316;13.950;2023-10-31T06:05:21;27.15;;;19.67;;
11247;SDS011;5681;53.316;13.950;2023-10-31T06:07:47;20.65;;;17.02;;
11247;SDS011;5681;53.316;13.950;2023-10-31T06:10:13;19.65;;;15.63;;
11247;SDS011;5681;53.316;13.950;2023-10-31T06:12:40;31.65;;;24.02;;
11247;SDS011;5681;53.316;13.950;2023-10-31T06:15:07;25.40;;;18.00;;
11247;SDS011;5681;53.316;13.950;2023-10-31T06:17:34;32.85;;;21.13;;
11247;SDS011;5681;53.316;13.950;2023-10-31T06:20:02;20.55;;;13.95;;
11247;SDS011;5681;53.316;13.950;2023-10-31T06:22:28;18.55;;;12.95;;
11247;SDS011;5681;53.316;13.950;2023-10-31T06:24:55;24.63;;;16.88;;
11247;SDS011;5681;53.316;13.950;2023-10-31T06:27:23;38.35;;;31.40;;
11247;SDS011;5681;53.316;13.950;2023-10-31T06:29:49;26.85;;;20.67;;
11247;SDS011;5681;53.316;13.950;2023-10-31T06:32:15;26.48;;;19.80;;
11247;SDS011;5681;53.316;13.950;2023-10-31T06:34:42;41.85;;;26.60;;
11247;SDS011;5681;53.316;13.950;2023-10-31T06:37:10;23.23;;;16.85;;
11247;SDS011;5681;53.316;13.950;2023-10-31T06:39:36;25.77;;;19.45;;
11247;SDS011;5681;53.316;13.950;2023-10-31T06:42:03;20.77;;;17.08;;
11247;SDS011;5681;53.316;13.950;2023-10-31T06:44:29;16.08;;;13.70;;
11247;SDS011;5681;53.316;13.950;2023-10-31T06:46:56;19.10;;;13.10;;
11247;SDS011;5681;53.316;13.950;2023-10-31T06:49:22;19.02;;;16.00;;
11247;SDS011;5681;53.316;13.950;2023-10-31T06:51:49;19.40;;;13.45;;
11247;SDS011;5681;53.316;13.950;2023-10-31T06:54:16;16.88;;;11.25;;
11247;SDS011;5681;53.316;13.950;2023-10-31T06:56:43;18.15;;;12.73;;
11247;SDS011;5681;53.316;13.950;2023-10-31T06:59:09;23.20;;;18.80;;
11247;SDS011;5681;53.316;13.950;2023-10-31T07:01:35;29.02;;;21.50;;
11247;SDS011;5681;53.316;13.950;2023-10-31T07:04:02;15.43;;;13.45;;
11247;SDS011;5681;53.316;13.950;2023-10-31T07:06:29;14.57;;;11.55;;
11247;SDS011;5681;53.316;13.950;2023-10-31T07:08:56;15.25;;;11.68;;
11247;SDS011;5681;53.316;13.950;2023-10-31T07:11:24;15.32;;;11.80;;
11247;SDS011;5681;53.316;13.950;2023-10-31T07:13:50;15.95;;;11.75;;
11247;SDS011;5681;53.316;13.950;2023-10-31T07:16:16;17.40;;;12.30;;
11247;SDS011;5681;53.316;13.950;2023-10-31T07:18:43;20.42;;;12.55;;
11247;SDS011;5681;53.316;13.950;2023-10-31T07:21:09;14.43;;;11.98;;
11247;SDS011;5681;53.316;13.950;2023-10-31T07:23:35;15.23;;;11.48;;
11247;SDS011;5681;53.316;13.950;2023-10-31T07:26:02;15.50;;;11.02;;
11247;SDS011;5681;53.316;13.950;2023-10-31T07:28:30;15.07;;;11.40;;
11247;SDS011;5681;53.316;13.950;2023-10-31T07:30:56;15.20;;;11.07;;
11247;SDS011;5681;53.316;13.950;2023-10-31T07:33:22;16.02;;;11.60;;
11247;SDS011;5681;53.316;13.950;2023-10-31T07:35:49;16.90;;;11.48;;
11247;SDS011;5681;53.316;13.950;2023-10-31T07:38:15;15.13;;;10.90;;
11247;SDS011;5681;53.316;13.950;2023-10-31T07:40:41;17.08;;;11.32;;
11247;SDS011;5681;53.316;13.950;2023-10-31T07:43:08;16.75;;;11.27;;
11247;SDS011;5681;53.316;13.950;2023-10-31T07:45:35;12.02;;;9.98;;
11247;SDS011;5681;53.316;13.950;2023-10-31T07:48:02;12.13;;;10.32;;
11247;SDS011;5681;53.316;13.950;2023-10-31T07:50:28;12.40;;;9.88;;
11247;SDS011;5681;53.316;13.950;2023-10-31T07:52:55;13.40;;;10.38;;
11247;SDS011;5681;53.316;13.950;2023-10-31T07:55:21;12.15;;;9.48;;
11247;SDS011;5681;53.316;13.950;2023-10-31T07:57:47;11.07;;;8.63;;
11247;SDS011;5681;53.316;13.950;2023-10-31T08:00:14;9.90;;;8.40;;
11247;SDS011;5681;53.316;13.950;2023-10-31T08:02:42;8.50;;;7.00;;
11247;SDS011;5681;53.316;13.950;2023-10-31T08:05:09;11.02;;;7.88;;
11247;SDS011;5681;53.316;13.950;2023-10-31T08:07:38;9.13;;;7.00;;
11247;SDS011;5681;53.316;13.950;2023-10-31T08:10:06;8.68;;;6.65;;
11247;SDS011;5681;53.316;13.950;2023-10-31T08:12:33;7.65;;;6.78;;
11247;SDS011;5681;53.316;13.950;2023-10-31T08:15:00;7.03;;;6.00;;
11247;SDS011;5681;53.316;13.950;2023-10-31T08:17:26;6.70;;;6.10;;
11247;SDS011;5681;53.316;13.950;2023-10-31T08:19:54;8.20;;;6.50;;
11247;SDS011;5681;53.316;13.950;2023-10-31T08:22:20;7.82;;;5.78;;
11247;SDS011;5681;53.316;13.950;2023-10-31T08:24:47;6.15;;;5.55;;
11247;SDS011;5681;53.316;13.950;2023-10-31T08:27:13;9.38;;;6.70;;
11247;SDS011;5681;53.316;13.950;2023-10-31T08:29:40;9.05;;;6.63;;
11247;SDS011;5681;53.316;13.950;2023-10-31T08:32:06;7.70;;;6.30;;
11247;SDS011;5681;53.316;13.950;2023-10-31T08:34:32;6.75;;;6.07;;
11247;SDS011;5681;53.316;13.950;2023-10-31T08:37:00;7.80;;;6.15;;
11247;SDS011;5681;53.316;13.950;2023-10-31T08:39:27;6.93;;;5.78;;
11247;SDS011;5681;53.316;13.950;2023-10-31T08:41:54;7.57;;;5.85;;
11247;SDS011;5681;53.316;13.950;2023-10-31T08:44:21;8.70;;;6.05;;
11247;SDS011;5681;53.316;13.950;2023-10-31T08:46:47;7.82;;;5.97;;
11247;SDS011;5681;53.316;13.950;2023-10-31T08:49:14;8.02;;;5.88;;
11247;SDS011;5681;53.316;13.950;2023-10-31T08:51:41;6.57;;;5.90;;
11247;SDS011;5681;53.316;13.950;2023-10-31T08:54:09;7.82;;;5.85;;
11247;SDS011;5681;53.316;13.950;2023-10-31T08:56:37;5.03;;;4.63;;
11247;SDS011;5681;53.316;13.950;2023-10-31T08:59:03;6.00;;;5.47;;
11247;SDS011;5681;53.316;13.950;2023-10-31T09:01:29;5.80;;;5.30;;
11247;SDS011;5681;53.316;13.950;2023-10-31T09:03:56;7.75;;;6.18;;
11247;SDS011;5681;53.316;13.950;2023-10-31T09:06:23;6.90;;;6.15;;
11247;SDS011;5681;53.316;13.950;2023-10-31T09:08:49;8.10;;;6.60;;
11247;SDS011;5681;53.316;13.950;2023-10-31T09:11:17;7.05;;;6.30;;
11247;SDS011;5681;53.316;13.950;2023-10-31T09:13:43;6.22;;;5.63;;
11247;SDS011;5681;53.316;13.950;2023-10-31T09:16:10;6.70;;;4.95;;
11247;SDS011;5681;53.316;13.950;2023-10-31T09:18:37;5.43;;;4.55;;
11247;SDS011;5681;53.316;13.950;2023-10-31T09:21:03;4.55;;;4.15;;
11247;SDS011;5681;53.316;13.950;2023-10-31T09:23:30;4.75;;;4.25;;
11247;SDS011;5681;53.316;13.950;2023-10-31T09:25:57;4.50;;;4.10;;
11247;SDS011;5681;53.316;13.950;2023-10-31T09:28:25;5.75;;;3.97;;
11247;SDS011;5681;53.316;13.950;2023-10-31T09:30:51;4.78;;;4.22;;
11247;SDS011;5681;53.316;13.950;2023-10-31T09:33:18;5.05;;;4.07;;
11247;SDS011;5681;53.316;13.950;2023-10-31T09:35:44;4.53;;;4.20;;
11247;SDS011;5681;53.316;13.950;2023-10-31T09:38:10;4.60;;;4.22;;
11247;SDS011;5681;53.316;13.950;2023-10-31T09:40:37;4.47;;;4.00;;
11247;SDS011;5681;53.316;13.950;2023-10-31T09:43:04;8.68;;;7.93;;
11247;SDS011;5681;53.316;13.950;2023-10-31T09:45:33;5.93;;;5.43;;
11247;SDS011;5681;53.316;13.950;2023-10-31T09:48:00;7.20;;;4.20;;
11247;SDS011;5681;53.316;13.950;2023-10-31T09:50:27;8.05;;;5.53;;
11247;SDS011;5681;53.316;13.950;2023-10-31T09:52:55;9.20;;;8.35;;
11247;SDS011;5681;53.316;13.950;2023-10-31T09:55:21;4.68;;;4.25;;
11247;SDS011;5681;53.316;13.950;2023-10-31T09:57:48;4.45;;;4.05;;
11247;SDS011;5681;53.316;13.950;2023-10-31T10:00:15;6.22;;;4.80;;
11247;SDS011;5681;53.316;13.950;2023-10-31T10:02:45;4.70;;;4.30;;
11247;SDS011;5681;53.316;13.950;2023-10-31T10:05:12;5.55;;;3.38;;
11247;SDS011;5681;53.316;13.950;2023-10-31T10:07:41;3.30;;;3.10;;
11247;SDS011;5681;53.316;13.950;2023-10-31T10:10:09;4.32;;;3.92;;
11247;SDS011;5681;53.316;13.950;2023-10-31T10:12:36;4.78;;;3.97;;
11247;SDS011;5681;53.316;13.950;2023-10-31T10:15:03;4.25;;;3.95;;
11247;SDS011;5681;53.316;13.950;2023-10-31T10:17:29;4.63;;;3.20;;
11247;SDS011;5681;53.316;13.950;2023-10-31T10:20:06;4.18;;;2.35;;
11247;SDS011;5681;53.316;13.950;2023-10-31T10:22:36;2.88;;;1.90;;
11247;SDS011;5681;53.316;13.950;2023-10-31T10:25:04;2.20;;;2.00;;
11247;SDS011;5681;53.316;13.950;2023-10-31T10:27:30;1.80;;;1.70;;
11247;SDS011;5681;53.316;13.950;2023-10-31T10:30:01;2.25;;;1.33;;
11247;SDS011;5681;53.316;13.950;2023-10-31T10:32:28;1.67;;;1.58;;
11247;SDS011;5681;53.316;13.950;2023-10-31T10:34:54;1.30;;;1.20;;
11247;SDS011;5681;53.316;13.950;2023-10-31T10:37:22;2.03;;;1.10;;
11247;SDS011;5681;53.316;13.950;2023-10-31T10:39:49;2.28;;;1.23;;
11247;SDS011;5681;53.316;13.950;2023-10-31T10:42:21;1.33;;;1.23;;
11247;SDS011;5681;53.316;13.950;2023-10-31T10:44:56;1.80;;;1.10;;
11247;SDS011;5681;53.316;13.950;2023-10-31T10:47:24;1.27;;;1.17;;
11247;SDS011;5681;53.316;13.950;2023-10-31T10:49:50;1.10;;;1.05;;
11247;SDS011;5681;53.316;13.950;2023-10-31T10:52:22;1.38;;;0.90;;
11247;SDS011;5681;53.316;13.950;2023-10-31T10:54:57;1.92;;;1.10;;
11247;SDS011;5681;53.316;13.950;2023-10-31T10:57:31;2.85;;;1.08;;
11247;SDS011;5681;53.316;13.950;2023-10-31T11:00:02;3.03;;;1.02;;
11247;SDS011;5681;53.316;13.950;2023-10-31T11:02:30;1.25;;;0.90;;
11247;SDS011;5681;53.316;13.950;2023-10-31T11:04:56;0.60;;;0.60;;
11247;SDS011;5681;53.316;13.950;2023-10-31T11:07:25;1.08;;;0.75;;
11247;SDS011;5681;53.316;13.950;2023-10-31T11:09:53;0.70;;;0.70;;
11247;SDS011;5681;53.316;13.950;2023-10-31T11:12:21;1.20;;;0.82;;
11247;SDS011;5681;53.316;13.950;2023-10-31T11:14:48;1.33;;;0.63;;
11247;SDS011;5681;53.316;13.950;2023-10-31T11:17:16;3.78;;;2.95;;
11247;SDS011;5681;53.316;13.950;2023-10-31T11:19:48;0.82;;;0.70;;
11247;SDS011;5681;53.316;13.950;2023-10-31T11:22:15;1.67;;;0.68;;
11247;SDS011;5681;53.316;13.950;2023-10-31T11:24:44;0.90;;;0.70;;
11247;SDS011;5681;53.316;13.950;2023-10-31T11:27:11;1.40;;;0.70;;
11247;SDS011;5681;53.316;13.950;2023-10-31T11:29:37;0.75;;;0.70;;
11247;SDS011;5681;53.316;13.950;2023-10-31T11:32:04;2.35;;;1.38;;
11247;SDS011;5681;53.316;13.950;2023-10-31T11:34:34;2.00;;;1.10;;
11247;SDS011;5681;53.316;13.950;2023-10-31T11:42:44;1.02;;;0.80;;
11247;SDS011;5681;53.316;13.950;2023-10-31T11:45:14;1.40;;;0.80;;
11247;SDS011;5681;53.316;13.950;2023-10-31T11:47:51;2.05;;;1.58;;
11247;SDS011;5681;53.316;13.950;2023-10-31T11:50:17;1.80;;;1.40;;
11247;SDS011;5681;53.316;13.950;2023-10-31T11:52:44;2.40;;;0.73;;
11247;SDS011;5681;53.316;13.950;2023-10-31T11:55:10;2.58;;;1.50;;
11247;SDS011;5681;53.316;13.950;2023-10-31T11:57:39;5.25;;;1.75;;
11247;SDS011;5681;53.316;13.950;2023-10-31T12:00:06;0.85;;;0.77;;
11247;SDS011;5681;53.316;13.950;2023-10-31T12:02:34;2.40;;;1.90;;
11247;SDS011;5681;53.316;13.950;2023-10-31T12:05:06;3.17;;;1.85;;
11247;SDS011;5681;53.316;13.950;2023-10-31T12:07:41;4.15;;;3.05;;
11247;SDS011;5681;53.316;13.950;2023-10-31T12:10:08;4.57;;;2.58;;
11247;SDS011;5681;53.316;13.950;2023-10-31T12:12:34;1.75;;;0.77;;
11247;SDS011;5681;53.316;13.950;2023-10-31T12:15:06;4.90;;;2.97;;
11247;SDS011;5681;53.316;13.950;2023-10-31T12:17:33;2.08;;;1.30;;
11247;SDS011;5681;53.316;13.950;2023-10-31T12:20:02;2.78;;;1.85;;
11247;SDS011;5681;53.316;13.950;2023-10-31T12:22:29;2.95;;;1.02;;
11247;SDS011;5681;53.316;13.950;2023-10-31T12:24:59;5.07;;;2.10;;
11247;SDS011;5681;53.316;13.950;2023-10-31T12:27:41;3.53;;;2.65;;
11247;SDS011;5681;53.316;13.950;2023-10-31T12:30:10;4.68;;;3.25;;
11247;SDS011;5681;53.316;13.950;2023-10-31T12:32:37;2.53;;;1.00;;
11247;SDS011;5681;53.316;13.950;2023-10-31T12:35:03;5.03;;;2.30;;
11247;SDS011;5681;53.316;13.950;2023-10-31T12:37:30;1.60;;;1.02;;
11247;SDS011;5681;53.316;13.950;2023-10-31T12:39:57;3.88;;;1.92;;
11247;SDS011;5681;53.316;13.950;2023-10-31T12:42:27;5.25;;;3.10;;
11247;SDS011;5681;53.316;13.950;2023-10-31T12:44:55;8.20;;;3.65;;
11247;SDS011;5681;53.316;13.950;2023-10-31T12:47:23;7.53;;;2.25;;
11247;SDS011;5681;53.316;13.950;2023-10-31T12:50:04;3.33;;;1.60;;
11247;SDS011;5681;53.316;13.950;2023-10-31T12:52:44;2.03;;;1.13;;
11247;SDS011;5681;53.316;13.950;2023-10-31T12:55:12;1.30;;;1.10;;
11247;SDS011;5681;53.316;13.950;2023-10-31T12:57:39;1.23;;;1.00;;
11247;SDS011;5681;53.316;13.950;2023-10-31T13:00:06;1.73;;;0.98;;
11247;SDS011;5681;53.316;13.950;2023-10-31T13:02:36;2.22;;;0.88;;
11247;SDS011;5681;53.316;13.950;2023-10-31T13:05:10;1.75;;;0.80;;
11247;SDS011;5681;53.316;13.950;2023-10-31T13:07:38;2.85;;;1.52;;
11247;SDS011;5681;53.316;13.950;2023-10-31T13:10:05;2.55;;;0.82;;
11247;SDS011;5681;53.316;13.950;2023-10-31T13:12:32;1.38;;;0.80;;
11247;SDS011;5681;53.316;13.950;2023-10-31T13:14:59;2.25;;;0.70;;
11247;SDS011;5681;53.316;13.950;2023-10-31T13:17:26;2.97;;;0.70;;
11247;SDS011;5681;53.316;13.950;2023-10-31T13:19:53;1.90;;;0.75;;
11247;SDS011;5681;53.316;13.950;2023-10-31T13:22:20;3.53;;;0.80;;
11247;SDS011;5681;53.316;13.950;2023-10-31T13:24:46;3.63;;;0.65;;
11247;SDS011;5681;53.316;13.950;2023-10-31T13:27:13;1.15;;;0.73;;
11247;SDS011;5681;53.316;13.950;2023-10-31T13:29:41;1.08;;;0.80;;
11247;SDS011;5681;53.316;13.950;2023-10-31T13:32:07;1.52;;;0.65;;
11247;SDS011;5681;53.316;13.950;2023-10-31T13:34:34;1.27;;;0.88;;
11247;SDS011;5681;53.316;13.950;2023-10-31T13:37:02;1.50;;;0.70;;
11247;SDS011;5681;53.316;13.950;2023-10-31T13:39:28;0.88;;;0.68;;
11247;SDS011;5681;53.316;13.950;2023-10-31T13:41:55;3.08;;;1.08;;
11247;SDS011;5681;53.316;13.950;2023-10-31T13:44:21;2.55;;;1.98;;
11247;SDS011;5681;53.316;13.950;2023-10-31T13:46:47;4.88;;;2.08;;
11247;SDS011;5681;53.316;13.950;2023-10-31T13:49:14;5.00;;;3.35;;
11247;SDS011;5681;53.316;13.950;2023-10-31T13:51:40;4.00;;;2.22;;
11247;SDS011;5681;53.316;13.950;2023-10-31T13:54:08;5.07;;;3.60;;
11247;SDS011;5681;53.316;13.950;2023-10-31T13:56:34;4.97;;;3.65;;
11247;SDS011;5681;53.316;13.950;2023-10-31T13:59:01;2.10;;;1.35;;
11247;SDS011;5681;53.316;13.950;2023-10-31T14:01:27;5.47;;;2.80;;
11247;SDS011;5681;53.316;13.950;2023-10-31T14:03:54;1.90;;;0.70;;
11247;SDS011;5681;53.316;13.950;2023-10-31T14:06:20;1.15;;;0.65;;
11247;SDS011;5681;53.316;13.950;2023-10-31T14:08:47;1.48;;;0.60;;
11247;SDS011;5681;53.316;13.950;2023-10-31T14:11:14;1.48;;;0.55;;
11247;SDS011;5681;53.316;13.950;2023-10-31T14:13:41;1.75;;;0.60;;
11247;SDS011;5681;53.316;13.950;2023-10-31T14:16:09;1.55;;;0.40;;
11247;SDS011;5681;53.316;13.950;2023-10-31T14:18:37;3.42;;;0.80;;
11247;SDS011;5681;53.316;13.950;2023-10-31T14:21:04;3.45;;;0.45;;
11247;SDS011;5681;53.316;13.950;2023-10-31T14:23:30;0.30;;;0.30;;
11247;SDS011;5681;53.316;13.950;2023-10-31T14:25:57;2.92;;;0.70;;
11247;SDS011;5681;53.316;13.950;2023-10-31T14:28:24;3.15;;;0.50;;
11247;SDS011;5681;53.316;13.950;2023-10-31T14:30:51;0.50;;;0.38;;
11247;SDS011;5681;53.316;13.950;2023-10-31T14:33:17;1.45;;;0.50;;
11247;SDS011;5681;53.316;13.950;2023-10-31T14:35:44;0.40;;;0.38;;
11247;SDS011;5681;53.316;13.950;2023-10-31T14:38:10;2.10;;;1.15;;
11247;SDS011;5681;53.316;13.950;2023-10-31T14:40:36;4.15;;;0.95;;
11247;SDS011;5681;53.316;13.950;2023-10-31T14:43:03;0.40;;;0.40;;
11247;SDS011;5681;53.316;13.950;2023-10-31T14:45:31;0.88;;;0.73;;